map of GHA home
GHA - Airport
Location
City:  Ghardaia, Ghardaïa, Algeria
Name:Noumérat-Moufdi Zakaria Airport
ICAO:DAUG
IATA:GHA

Details
Type:Airport (Aerodrome, Airfield)
Use:Public/Civil, International (customs port of entry)
Latitude:32°22'54"N (32.381667)
Longitude:3°47'58"E (3.799444)
Elevation:1512 ft (461 m)
Variation:1.11°E (WMM2015 magnetic declination)
0.09° annual change
Runways:2
Longest:10171 × 197 ft (3100 × 60 m)

Time
Time Zone:UTC+1
Local Time:

Weather
METAR:DAUG 160900Z 36012KT 9000 NSC 16/10 Q1017
TAF:DAUG 160500Z 1606/1706 34010KT 6000 NSC PROB30
TEMPO 1606/1612 4000 HZ
BECMG 1613/1616 05008KT

Related Locations
Nearby:
Farthest:NZOP: 11902 mi / 19154 km
Opotiki, BOP, NZ

Find:

   beyond  
but within

Other Information
Maps:
NOTAMs:
Links:
Sources:

  
  • flag of Algeria
  

Sectional Chart

Flight Planning
at skyvector.com

Satellite Image

Google Maps Satellite view

 

Copyright © 2004-2018 Karl L. Swartz. All rights reserved.
The Great Circle Mapper name and logo are trademarks of the Great Circle Mapper.
All other trademarks mentioned herein belong to their respective owners.
Please see credits for attibutions and further copyright information.

  Follow gcmap on Facebook Follow gcmap on Twitter Follow gcmap on Google+ GCmap on LinkedIn

hCard Microformat

Geo Microformat